createdAt,value
2023-01-29T00:01:23.960Z,4.42
2023-01-29T00:03:52.234Z,4.40
2023-01-29T00:06:19.280Z,4.39
2023-01-29T00:08:47.099Z,4.41
2023-01-29T00:11:14.193Z,4.42
2023-01-29T00:13:41.134Z,4.42
2023-01-29T00:16:08.217Z,4.43
2023-01-29T00:18:39.187Z,4.43
2023-01-29T00:21:22.236Z,4.44
2023-01-29T00:23:50.047Z,4.43
2023-01-29T00:26:17.733Z,4.47
2023-01-29T00:28:47.984Z,4.51
2023-01-29T00:31:20.304Z,4.45
2023-01-29T00:33:47.819Z,4.45
2023-01-29T00:36:18.302Z,4.47
2023-01-29T00:38:54.647Z,4.45
2023-01-29T00:41:42.234Z,4.45
2023-01-29T00:44:28.131Z,4.44
2023-01-29T00:46:55.161Z,4.47
2023-01-29T00:49:22.457Z,4.46
2023-01-29T00:52:09.476Z,4.47
2023-01-29T00:54:36.559Z,4.50
2023-01-29T00:57:04.249Z,4.49
2023-01-29T00:59:32.034Z,4.49
2023-01-29T01:02:17.648Z,4.48
2023-01-29T01:04:44.580Z,4.50
2023-01-29T01:09:56.301Z,4.55
2023-01-29T01:12:23.263Z,4.58
2023-01-29T01:14:51.014Z,4.60
2023-01-29T01:17:18.010Z,4.62
2023-01-29T01:19:45.217Z,4.62
2023-01-29T01:22:12.454Z,4.61
2023-01-29T01:24:39.478Z,4.62
2023-01-29T01:27:06.967Z,4.60
2023-01-29T01:29:33.918Z,4.60
2023-01-29T01:32:01.097Z,4.62
2023-01-29T01:34:28.554Z,4.56
2023-01-29T01:36:58.918Z,4.60
2023-01-29T01:39:25.926Z,4.60
2023-01-29T01:41:53.736Z,4.59
2023-01-29T01:44:53.658Z,4.60
2023-01-29T01:47:41.910Z,4.63
2023-01-29T01:50:14.892Z,4.61
2023-01-29T01:52:47.018Z,4.60
2023-01-29T01:55:20.323Z,4.57
2023-01-29T01:57:52.855Z,4.57
2023-01-29T02:00:21.804Z,4.56
2023-01-29T02:03:07.478Z,4.56
2023-01-29T02:05:55.099Z,4.59
2023-01-29T02:09:03.820Z,4.58
2023-01-29T02:11:31.237Z,4.61
2023-01-29T02:13:58.662Z,4.64
2023-01-29T02:16:26.323Z,4.66
2023-01-29T02:18:53.661Z,4.63
2023-01-29T02:21:29.275Z,4.66
2023-01-29T02:24:24.018Z,4.61
2023-01-29T02:27:07.073Z,4.55
2023-01-29T02:30:12.218Z,4.54
2023-01-29T02:32:54.494Z,4.52
2023-01-29T02:35:32.426Z,4.48
2023-01-29T02:38:08.540Z,4.41
2023-01-29T02:40:44.079Z,4.42
2023-01-29T02:43:14.265Z,4.40
2023-01-29T02:45:51.527Z,4.35
2023-01-29T02:48:25.591Z,4.32
2023-01-29T02:51:06.963Z,4.33
2023-01-29T02:53:58.377Z,4.32
2023-01-29T02:56:37.042Z,4.32
2023-01-29T02:59:12.411Z,4.28
2023-01-29T03:01:48.737Z,4.25
2023-01-29T03:04:22.860Z,4.23
2023-01-29T03:06:55.026Z,4.22
2023-01-29T03:09:37.666Z,4.21
2023-01-29T03:12:28.485Z,4.20
2023-01-29T03:15:12.435Z,4.22
2023-01-29T03:18:08.638Z,4.24
2023-01-29T03:20:50.018Z,4.23
2023-01-29T03:23:50.062Z,4.24
2023-01-29T03:26:40.486Z,4.25
2023-01-29T03:29:28.503Z,4.26
2023-01-29T03:32:06.942Z,4.24
2023-01-29T03:34:42.080Z,4.22
2023-01-29T03:37:31.223Z,4.24
2023-01-29T03:39:59.025Z,4.25
2023-01-29T03:42:35.093Z,4.25
2023-01-29T03:45:23.630Z,4.26
2023-01-29T03:48:20.318Z,4.28
2023-01-29T03:51:03.502Z,4.30
2023-01-29T03:53:44.708Z,4.32
2023-01-29T03:56:37.377Z,4.32
2023-01-29T03:59:21.533Z,4.34
2023-01-29T04:02:28.623Z,4.37
2023-01-29T04:05:06.175Z,4.36
2023-01-29T04:07:41.531Z,4.37
2023-01-29T04:10:14.281Z,4.38
2023-01-29T04:12:50.166Z,4.39
2023-01-29T04:15:19.259Z,4.38
2023-01-29T04:17:53.243Z,4.43
2023-01-29T04:20:28.255Z,4.43
2023-01-29T04:22:56.002Z,4.45
2023-01-29T04:25:29.380Z,4.44
2023-01-29T04:28:09.706Z,4.44
2023-01-29T04:30:52.700Z,4.46
2023-01-29T04:33:25.979Z,4.45
2023-01-29T04:36:18.165Z,4.48
2023-01-29T04:38:59.121Z,4.56
2023-01-29T04:41:34.271Z,4.52
2023-01-29T04:44:04.056Z,4.52
2023-01-29T04:46:52.641Z,4.53
2023-01-29T04:49:31.411Z,4.52
2023-01-29T04:52:21.917Z,4.54
2023-01-29T04:55:05.041Z,4.52
2023-01-29T04:57:46.375Z,4.51
2023-01-29T05:00:20.095Z,4.55
2023-01-29T05:02:48.294Z,4.56
2023-01-29T05:05:20.187Z,4.53
2023-01-29T05:07:48.570Z,4.55
2023-01-29T05:10:20.343Z,4.55
2023-01-29T05:12:53.015Z,4.53
2023-01-29T05:15:25.919Z,4.57
2023-01-29T05:17:54.582Z,4.57
2023-01-29T05:20:22.084Z,4.56
2023-01-29T05:22:49.503Z,4.58
2023-01-29T05:25:29.675Z,4.59
2023-01-29T05:28:16.364Z,4.63
2023-01-29T05:30:51.616Z,4.63
2023-01-29T05:33:21.753Z,4.63
2023-01-29T05:35:48.848Z,4.63
2023-01-29T05:38:16.252Z,4.65
2023-01-29T05:40:43.458Z,4.65
2023-01-29T05:43:25.044Z,4.64
2023-01-29T05:46:00.434Z,4.66
2023-01-29T05:48:29.252Z,4.60
2023-01-29T05:51:04.346Z,4.55
2023-01-29T05:53:32.269Z,4.53
2023-01-29T05:56:02.061Z,4.51
2023-01-29T05:58:33.364Z,4.49
2023-01-29T06:01:15.885Z,4.46
2023-01-29T06:03:43.503Z,4.44
2023-01-29T06:06:10.518Z,4.43
2023-01-29T06:08:37.476Z,4.42
2023-01-29T06:11:04.881Z,4.42
2023-01-29T06:13:31.889Z,4.42
2023-01-29T06:15:58.802Z,4.40
2023-01-29T06:18:25.821Z,4.38
2023-01-29T06:20:52.683Z,4.39
2023-01-29T06:23:20.031Z,4.43
2023-01-29T06:25:46.966Z,4.41
2023-01-29T06:28:13.731Z,4.41
2023-01-29T06:30:40.596Z,4.38
2023-01-29T06:33:07.559Z,4.36
2023-01-29T06:35:34.374Z,4.34
2023-01-29T06:38:01.197Z,4.33
2023-01-29T06:40:28.273Z,4.33
2023-01-29T06:42:55.135Z,4.32
2023-01-29T06:45:22.230Z,4.33
2023-01-29T06:47:49.587Z,4.32
2023-01-29T06:50:17.544Z,4.32
2023-01-29T06:52:44.583Z,4.29
2023-01-29T06:55:11.830Z,4.26
2023-01-29T06:57:38.663Z,4.23
2023-01-29T07:00:06.611Z,4.19
2023-01-29T07:02:33.599Z,4.17
2023-01-29T07:05:00.493Z,4.17
2023-01-29T07:07:27.349Z,4.16
2023-01-29T07:09:54.559Z,4.15
2023-01-29T07:12:21.510Z,4.16
2023-01-29T07:14:48.567Z,4.17
2023-01-29T07:17:15.612Z,4.16
2023-01-29T07:19:42.438Z,4.17
2023-01-29T07:22:09.277Z,4.17
2023-01-29T07:24:36.660Z,4.19
2023-01-29T07:27:03.607Z,4.18
2023-01-29T07:29:30.468Z,4.19
2023-01-29T07:31:57.647Z,4.21
2023-01-29T07:34:24.565Z,4.19
2023-01-29T07:36:54.689Z,4.16
2023-01-29T07:39:22.094Z,4.13
2023-01-29T07:41:49.085Z,4.11
2023-01-29T07:44:16.904Z,4.09
2023-01-29T07:46:44.329Z,4.10
2023-01-29T07:49:11.211Z,4.09
2023-01-29T07:51:38.032Z,4.09
2023-01-29T07:54:05.092Z,4.11
2023-01-29T07:56:31.971Z,4.11
2023-01-29T07:58:59.031Z,4.13
2023-01-29T08:01:26.169Z,4.15
2023-01-29T08:03:53.148Z,4.15
2023-01-29T08:06:20.960Z,4.15
2023-01-29T08:08:48.188Z,4.15
2023-01-29T08:11:15.593Z,4.18
2023-01-29T08:13:42.737Z,4.23
2023-01-29T08:16:09.884Z,4.26
2023-01-29T08:18:38.162Z,4.26
2023-01-29T08:21:05.379Z,4.26
2023-01-29T08:23:33.053Z,4.28
2023-01-29T08:26:00.126Z,4.28
2023-01-29T08:28:27.429Z,4.28
2023-01-29T08:30:54.892Z,4.25
2023-01-29T08:33:29.796Z,4.25
2023-01-29T08:36:04.561Z,4.28
2023-01-29T08:38:31.546Z,4.33
2023-01-29T08:40:58.373Z,4.40
2023-01-29T08:43:25.989Z,4.50
2023-01-29T08:45:52.872Z,4.56
2023-01-29T08:48:20.137Z,4.55
2023-01-29T08:50:47.531Z,4.55
2023-01-29T08:53:14.909Z,4.54
2023-01-29T08:55:42.004Z,4.53
2023-01-29T08:58:11.545Z,4.57
2023-01-29T09:00:38.756Z,4.61
2023-01-29T09:03:07.817Z,4.66
2023-01-29T09:05:38.874Z,4.71
2023-01-29T09:08:07.289Z,4.71
2023-01-29T09:10:34.799Z,4.76
2023-01-29T09:13:02.230Z,4.79
2023-01-29T09:15:29.255Z,4.78
2023-01-29T09:17:56.177Z,4.76
2023-01-29T09:20:23.491Z,4.74
2023-01-29T09:22:53.615Z,4.75
2023-01-29T09:25:21.499Z,4.76
2023-01-29T09:27:48.721Z,4.79
2023-01-29T09:30:15.839Z,4.76
2023-01-29T09:32:53.255Z,4.80
2023-01-29T09:35:24.654Z,4.77
2023-01-29T09:37:52.418Z,4.76
2023-01-29T09:40:42.061Z,4.83
2023-01-29T09:43:23.711Z,4.88
2023-01-29T09:46:39.204Z,4.87
2023-01-29T09:49:25.582Z,4.89
2023-01-29T09:52:05.657Z,4.93
2023-01-29T09:54:55.130Z,4.89
2023-01-29T09:57:51.316Z,4.93
2023-01-29T10:00:39.869Z,4.92
2023-01-29T10:03:24.497Z,4.93
2023-01-29T10:05:57.237Z,4.92
2023-01-29T10:08:42.856Z,4.90
2023-01-29T10:11:42.928Z,4.87
2023-01-29T10:14:20.725Z,4.87
2023-01-29T10:17:06.159Z,4.90
2023-01-29T10:19:33.515Z,4.91
2023-01-29T10:22:24.764Z,4.92
2023-01-29T10:25:00.575Z,4.92
2023-01-29T10:27:32.543Z,4.92
2023-01-29T10:30:02.966Z,4.93
2023-01-29T10:32:31.194Z,4.94
2023-01-29T10:35:03.680Z,4.94
2023-01-29T10:37:41.867Z,4.96
2023-01-29T10:40:37.395Z,5.05
2023-01-29T10:43:13.091Z,5.06
2023-01-29T10:46:06.582Z,5.09
2023-01-29T10:49:11.976Z,5.07
2023-01-29T10:51:52.263Z,5.16
2023-01-29T10:54:48.268Z,5.19
2023-01-29T10:57:41.986Z,5.21
2023-01-29T11:00:24.106Z,5.22
2023-01-29T11:02:52.731Z,5.27
2023-01-29T11:05:27.374Z,5.30
2023-01-29T11:08:05.113Z,5.32
2023-01-29T11:10:37.373Z,5.37
2023-01-29T11:13:05.501Z,5.41
2023-01-29T11:15:36.727Z,5.44
2023-01-29T11:18:16.177Z,5.50
2023-01-29T11:20:45.217Z,5.53
2023-01-29T11:23:31.319Z,5.62
2023-01-29T11:25:59.926Z,5.67
2023-01-29T11:28:59.400Z,5.61
2023-01-29T11:31:30.067Z,5.61
2023-01-29T11:34:16.814Z,5.65
2023-01-29T11:36:45.043Z,5.70
2023-01-29T11:39:17.846Z,5.69
2023-01-29T11:42:13.493Z,5.68
2023-01-29T11:44:42.996Z,5.65
2023-01-29T11:47:27.771Z,5.70
2023-01-29T11:50:01.332Z,5.64
2023-01-29T11:52:41.055Z,5.57
2023-01-29T11:55:20.408Z,5.55
2023-01-29T11:57:52.888Z,5.55
2023-01-29T12:00:27.739Z,5.47
2023-01-29T12:02:54.566Z,5.47
2023-01-29T12:05:24.980Z,5.48
2023-01-29T12:07:55.340Z,5.45
2023-01-29T12:10:37.514Z,5.49
2023-01-29T12:13:07.118Z,5.49
2023-01-29T12:15:34.114Z,5.46
2023-01-29T12:18:20.026Z,5.44
2023-01-29T12:20:54.695Z,5.43
2023-01-29T12:23:59.472Z,5.42
2023-01-29T12:26:49.908Z,5.44
2023-01-29T12:29:32.544Z,5.44
2023-01-29T12:32:14.746Z,5.45
2023-01-29T12:34:52.592Z,5.42
2023-01-29T12:37:26.008Z,5.44
2023-01-29T12:39:53.187Z,5.45
2023-01-29T12:42:24.557Z,5.44
2023-01-29T12:44:54.387Z,5.43
2023-01-29T12:47:44.297Z,5.40
2023-01-29T12:50:30.321Z,5.38
2023-01-29T12:53:12.551Z,5.36
2023-01-29T12:55:54.065Z,5.33
2023-01-29T12:58:28.763Z,5.32
2023-01-29T13:01:01.462Z,5.33
2023-01-29T13:03:52.013Z,5.34
2023-01-29T13:06:42.826Z,5.37
2023-01-29T13:09:20.128Z,5.31
2023-01-29T13:12:11.506Z,5.22
2023-01-29T13:14:44.539Z,5.17
2023-01-29T13:17:21.901Z,5.00
2023-01-29T13:19:55.118Z,4.90
2023-01-29T13:22:28.291Z,4.83
2023-01-29T13:25:04.689Z,4.78
2023-01-29T13:27:35.273Z,4.77
2023-01-29T13:30:02.882Z,4.80
2023-01-29T13:32:32.678Z,4.80
2023-01-29T13:35:03.539Z,4.76
2023-01-29T13:37:48.477Z,4.75
2023-01-29T13:40:27.206Z,4.78
2023-01-29T13:42:58.397Z,4.73
2023-01-29T13:45:31.276Z,4.71
2023-01-29T13:48:20.835Z,4.66
2023-01-29T13:50:48.572Z,4.64
2023-01-29T13:53:28.602Z,4.68
2023-01-29T13:55:55.891Z,4.69
2023-01-29T13:58:31.976Z,4.68
2023-01-29T14:01:01.913Z,4.66
2023-01-29T14:03:39.910Z,4.65
2023-01-29T14:06:38.626Z,4.66
2023-01-29T14:09:32.575Z,4.70
2023-01-29T14:12:00.106Z,4.70
2023-01-29T14:14:49.077Z,4.75
2023-01-29T14:17:18.804Z,4.75
2023-01-29T14:19:55.488Z,4.79
2023-01-29T14:22:27.286Z,4.85
2023-01-29T14:24:58.579Z,4.91
2023-01-29T14:27:26.084Z,4.92
2023-01-29T14:30:00.839Z,4.93
2023-01-29T14:32:28.314Z,4.95
2023-01-29T14:35:05.618Z,4.96
2023-01-29T14:37:41.460Z,4.95
2023-01-29T14:40:11.568Z,4.91
2023-01-29T14:42:44.023Z,4.84
2023-01-29T14:45:15.177Z,4.81
2023-01-29T14:47:43.577Z,4.79
2023-01-29T14:50:28.732Z,4.83
2023-01-29T14:53:21.463Z,4.77
2023-01-29T14:56:10.397Z,4.80
2023-01-29T14:58:51.136Z,4.88
2023-01-29T15:01:47.598Z,5.04
2023-01-29T15:04:47.704Z,5.15
2023-01-29T15:07:32.531Z,5.23
2023-01-29T15:10:23.351Z,5.28
2023-01-29T15:13:19.269Z,5.31
2023-01-29T15:15:56.453Z,5.37
2023-01-29T15:18:35.261Z,5.48
2023-01-29T15:21:05.615Z,5.60
2023-01-29T15:23:34.659Z,5.71
2023-01-29T15:26:04.511Z,5.76
2023-01-29T15:28:34.306Z,5.82
2023-01-29T15:31:04.453Z,5.83
2023-01-29T15:33:32.714Z,5.83
2023-01-29T15:36:07.387Z,5.84
2023-01-29T15:38:35.564Z,5.83
2023-01-29T15:41:16.469Z,5.84
2023-01-29T15:43:45.856Z,5.85
2023-01-29T15:46:23.147Z,5.87
2023-01-29T15:48:51.843Z,5.79
2023-01-29T15:51:25.778Z,5.61
2023-01-29T15:54:15.896Z,5.49
2023-01-29T15:56:54.541Z,5.49
2023-01-29T15:59:27.331Z,5.50
2023-01-29T16:01:54.480Z,5.53
2023-01-29T16:04:29.017Z,5.62
2023-01-29T16:06:58.307Z,5.67
2023-01-29T16:09:28.030Z,5.71
2023-01-29T16:11:59.195Z,5.73
2023-01-29T16:14:28.579Z,5.72
2023-01-29T16:16:55.684Z,5.73
2023-01-29T16:19:25.722Z,5.56
2023-01-29T16:22:01.663Z,5.37
2023-01-29T16:24:31.380Z,5.25
2023-01-29T16:27:02.152Z,5.23
2023-01-29T16:29:33.087Z,5.25
2023-01-29T16:32:02.606Z,5.19
2023-01-29T16:34:34.887Z,5.15
2023-01-29T16:37:04.709Z,5.10
2023-01-29T16:39:39.493Z,5.06
2023-01-29T16:42:13.009Z,5.06
2023-01-29T16:44:45.512Z,5.04
2023-01-29T16:47:15.242Z,5.03
2023-01-29T16:49:50.237Z,5.03
2023-01-29T16:52:25.072Z,5.05
2023-01-29T16:54:59.947Z,5.05
2023-01-29T16:57:32.055Z,5.04
2023-01-29T17:00:02.729Z,5.04
2023-01-29T17:02:33.645Z,5.04
2023-01-29T17:05:05.836Z,5.04
2023-01-29T17:07:34.761Z,5.03
2023-01-29T17:10:04.665Z,5.01
2023-01-29T17:12:33.724Z,4.99
2023-01-29T17:15:04.062Z,4.99
2023-01-29T17:17:33.220Z,5.00
2023-01-29T17:20:12.631Z,4.98
2023-01-29T17:22:40.121Z,4.96
2023-01-29T17:25:07.436Z,4.97
2023-01-29T17:27:34.451Z,4.98
2023-01-29T17:30:01.538Z,4.98
2023-01-29T17:32:43.897Z,4.97
2023-01-29T17:35:16.785Z,4.94
2023-01-29T17:37:44.433Z,4.92
2023-01-29T17:40:21.990Z,4.92
2023-01-29T17:42:48.820Z,4.91
2023-01-29T17:45:16.073Z,4.89
2023-01-29T17:47:43.623Z,4.77
2023-01-29T17:50:21.507Z,4.67
2023-01-29T17:52:50.100Z,4.60
2023-01-29T17:55:17.852Z,4.56
2023-01-29T17:57:45.057Z,4.53
2023-01-29T18:00:18.490Z,4.49
2023-01-29T18:02:45.792Z,4.48
2023-01-29T18:05:13.874Z,4.44
2023-01-29T18:07:43.017Z,4.40
2023-01-29T18:10:16.689Z,4.49
2023-01-29T18:12:44.376Z,4.53
2023-01-29T18:15:11.910Z,4.57
2023-01-29T18:17:40.428Z,4.60
2023-01-29T18:20:21.939Z,4.63
2023-01-29T18:22:51.036Z,4.62
2023-01-29T18:25:18.464Z,4.64
2023-01-29T18:27:46.671Z,4.63
2023-01-29T18:30:14.385Z,4.64
2023-01-29T18:32:41.587Z,4.66
2023-01-29T18:35:09.295Z,4.68
2023-01-29T18:37:36.525Z,4.68
2023-01-29T18:40:04.229Z,4.70
2023-01-29T18:42:33.497Z,4.73
2023-01-29T18:45:00.786Z,4.71
2023-01-29T18:47:27.819Z,4.64
2023-01-29T18:49:55.282Z,4.66
2023-01-29T18:52:22.522Z,4.59
2023-01-29T18:54:50.103Z,4.50
2023-01-29T18:58:27.893Z,4.49
2023-01-29T19:00:04.637Z,4.49
2023-01-29T19:02:31.700Z,4.52
2023-01-29T19:04:58.617Z,4.55
2023-01-29T19:07:25.882Z,4.56
2023-01-29T19:09:53.210Z,4.57
2023-01-29T19:12:22.969Z,4.58
2023-01-29T19:14:50.054Z,4.59
2023-01-29T19:17:17.247Z,4.63
2023-01-29T19:19:44.171Z,4.64
2023-01-29T19:22:11.305Z,4.65
2023-01-29T19:24:39.074Z,4.67
2023-01-29T19:27:06.749Z,4.68
2023-01-29T19:29:33.940Z,4.72
2023-01-29T19:32:01.352Z,4.78
2023-01-29T19:34:28.204Z,4.80
2023-01-29T19:36:55.328Z,4.82
2023-01-29T19:39:22.588Z,4.83
2023-01-29T19:41:50.062Z,4.82
2023-01-29T19:44:17.193Z,4.82
2023-01-29T19:46:44.658Z,4.83
2023-01-29T19:49:11.724Z,4.85
2023-01-29T19:51:40.233Z,4.88
2023-01-29T19:54:07.392Z,4.92
2023-01-29T19:56:35.303Z,4.97
2023-01-29T19:59:02.407Z,5.00
2023-01-29T20:01:29.966Z,5.04
2023-01-29T20:03:57.831Z,5.07
2023-01-29T20:06:27.474Z,5.13
2023-01-29T20:08:54.579Z,5.16
2023-01-29T20:11:23.339Z,5.20
2023-01-29T20:13:51.903Z,5.29
2023-01-29T20:16:20.043Z,5.36
2023-01-29T20:18:47.565Z,5.45
2023-01-29T20:21:17.523Z,5.47
2023-01-29T20:23:45.939Z,5.51
2023-01-29T20:26:15.807Z,5.56
2023-01-29T20:28:45.167Z,5.60
2023-01-29T20:31:12.150Z,5.64
2023-01-29T20:33:40.518Z,5.69
2023-01-29T20:36:10.083Z,5.71
2023-01-29T20:38:37.690Z,5.72
2023-01-29T20:41:16.817Z,5.75
2023-01-29T20:43:44.941Z,5.75
2023-01-29T20:46:12.587Z,5.79
2023-01-29T20:48:41.721Z,5.83
2023-01-29T20:51:15.400Z,5.86
2023-01-29T20:53:43.549Z,5.94
2023-01-29T20:56:11.418Z,5.98
2023-01-29T20:58:40.944Z,6.02
2023-01-29T21:01:10.681Z,6.04
2023-01-29T21:03:39.809Z,6.06
2023-01-29T21:06:08.688Z,6.07
2023-01-29T21:08:36.902Z,6.09
2023-01-29T21:11:05.287Z,6.11
2023-01-29T21:13:32.144Z,6.12
2023-01-29T21:15:59.742Z,6.14
2023-01-29T21:18:27.062Z,6.15
2023-01-29T21:20:54.527Z,6.13
2023-01-29T21:23:22.650Z,6.12
2023-01-29T21:25:50.002Z,6.13
2023-01-29T21:28:17.234Z,6.14
2023-01-29T21:30:44.359Z,6.15
2023-01-29T21:33:11.454Z,6.11
2023-01-29T21:35:38.606Z,6.08
2023-01-29T21:38:05.847Z,6.04
2023-01-29T21:40:33.562Z,5.99
2023-01-29T21:43:13.004Z,5.98
2023-01-29T21:45:41.224Z,6.01
2023-01-29T21:48:09.873Z,6.04
2023-01-29T21:50:37.999Z,6.04
2023-01-29T21:53:05.122Z,6.06
2023-01-29T21:55:32.848Z,6.08
2023-01-29T21:58:00.621Z,6.09
2023-01-29T22:00:28.316Z,6.15
2023-01-29T22:02:55.919Z,6.21
2023-01-29T22:05:23.321Z,6.23
2023-01-29T22:07:51.840Z,6.26
2023-01-29T22:10:20.613Z,6.26
2023-01-29T22:12:48.487Z,6.24
2023-01-29T22:15:15.872Z,6.24
2023-01-29T22:17:42.876Z,6.21
2023-01-29T22:20:14.696Z,6.18
2023-01-29T22:22:42.210Z,6.15
2023-01-29T22:25:09.671Z,6.14
2023-01-29T22:27:36.871Z,6.17
2023-01-29T22:30:05.572Z,6.25
2023-01-29T22:32:33.058Z,6.27
2023-01-29T22:35:00.149Z,6.29
2023-01-29T22:37:27.486Z,6.33
2023-01-29T22:39:54.856Z,6.36
2023-01-29T22:42:21.809Z,6.39
2023-01-29T22:44:48.896Z,6.40
2023-01-29T22:47:16.331Z,6.44
2023-01-29T22:49:45.573Z,6.49
2023-01-29T22:52:12.931Z,6.51
2023-01-29T22:54:42.001Z,6.56
2023-01-29T22:57:11.418Z,6.59
2023-01-29T22:59:38.668Z,6.65
2023-01-29T23:02:06.970Z,6.67
2023-01-29T23:04:33.876Z,6.67
2023-01-29T23:07:01.040Z,6.67
2023-01-29T23:09:28.116Z,6.67
2023-01-29T23:11:55.042Z,6.68
2023-01-29T23:14:22.282Z,6.75
2023-01-29T23:16:50.046Z,6.78
2023-01-29T23:19:17.073Z,6.78
2023-01-29T23:22:04.410Z,6.77
2023-01-29T23:24:31.389Z,6.82
2023-01-29T23:27:16.839Z,6.86
2023-01-29T23:29:45.880Z,6.87
2023-01-29T23:32:15.690Z,6.87
2023-01-29T23:34:42.632Z,6.88
2023-01-29T23:37:10.017Z,6.87
2023-01-29T23:39:37.011Z,6.86
2023-01-29T23:42:04.411Z,6.85
2023-01-29T23:44:32.541Z,6.83
2023-01-29T23:46:59.530Z,6.83
2023-01-29T23:49:26.555Z,6.87
2023-01-29T23:51:53.786Z,6.90
2023-01-29T23:54:21.384Z,6.92
2023-01-29T23:56:48.501Z,6.92
2023-01-29T23:59:16.158Z,6.93
